createdAt,value
2018-03-27T00:01:28.931Z,3.50
2018-03-27T00:06:12.263Z,3.40
2018-03-27T00:10:55.748Z,3.30
2018-03-27T00:15:39.062Z,3.20
2018-03-27T00:20:22.505Z,3.20
2018-03-27T00:25:05.836Z,3.20
2018-03-27T00:30:01.826Z,3.00
2018-03-27T00:35:02.944Z,3.00
2018-03-27T00:40:04.071Z,3.00
2018-03-27T00:44:53.470Z,3.00
2018-03-27T00:49:36.642Z,2.90
2018-03-27T00:54:20.025Z,2.70
2018-03-27T00:59:03.341Z,2.80
2018-03-27T01:03:46.684Z,2.70
2018-03-27T01:08:30.060Z,2.70
2018-03-27T01:13:13.431Z,2.60
2018-03-27T01:17:56.829Z,2.60
2018-03-27T01:22:40.211Z,2.60
2018-03-27T01:27:23.558Z,2.30
2018-03-27T01:32:07.086Z,2.40
2018-03-27T01:36:50.580Z,2.50
2018-03-27T01:41:33.975Z,2.40
2018-03-27T01:46:17.401Z,2.50
2018-03-27T01:51:01.666Z,2.50
2018-03-27T01:55:45.424Z,2.50
2018-03-27T02:00:28.748Z,2.50
2018-03-27T02:05:12.326Z,2.30
2018-03-27T02:09:55.713Z,2.30
2018-03-27T02:14:44.663Z,2.30
2018-03-27T02:19:33.861Z,2.30
2018-03-27T02:24:20.180Z,2.30
2018-03-27T02:29:03.603Z,2.20
2018-03-27T02:33:47.233Z,2.20
2018-03-27T02:38:30.744Z,2.20
2018-03-27T02:43:14.270Z,2.20
2018-03-27T02:47:57.889Z,2.10
2018-03-27T02:52:41.601Z,2.10
2018-03-27T02:57:26.577Z,2.10
2018-03-27T03:02:11.128Z,2.10
2018-03-27T03:06:56.260Z,2.10
2018-03-27T03:11:39.844Z,2.10
2018-03-27T03:16:23.536Z,2.00
2018-03-27T03:21:07.852Z,2.00
2018-03-27T03:25:53.576Z,1.90
2018-03-27T03:30:37.105Z,1.90
2018-03-27T03:35:20.801Z,1.90
2018-03-27T03:40:04.358Z,1.90
2018-03-27T03:44:48.094Z,1.80
2018-03-27T03:49:32.058Z,1.70
2018-03-27T03:54:15.809Z,1.70
2018-03-27T03:58:59.295Z,1.70
2018-03-27T04:03:42.916Z,1.70
2018-03-27T04:08:26.866Z,1.70
2018-03-27T04:13:11.067Z,1.60
2018-03-27T04:17:56.252Z,1.50
2018-03-27T04:22:42.861Z,1.50
2018-03-27T04:37:06.831Z,1.40
2018-03-27T04:41:50.163Z,1.30
2018-03-27T04:46:33.528Z,1.30
2018-03-27T04:51:16.926Z,1.30
2018-03-27T05:01:04.421Z,1.10
2018-03-27T05:05:47.797Z,1.10
2018-03-27T05:10:31.332Z,1.10
2018-03-27T05:15:14.679Z,1.10
2018-03-27T05:24:49.190Z,1.10
2018-03-27T05:29:32.533Z,1.20
2018-03-27T05:34:16.644Z,1.30
2018-03-27T05:39:00.000Z,1.30
2018-03-27T05:43:43.356Z,1.30
2018-03-27T05:48:27.447Z,1.50
2018-03-27T05:53:11.481Z,1.40
2018-03-27T05:57:55.369Z,1.60
2018-03-27T06:02:38.726Z,1.70
2018-03-27T06:07:22.409Z,1.70
2018-03-27T06:12:06.094Z,1.90
2018-03-27T06:16:49.554Z,1.90
2018-03-27T06:21:33.105Z,2.00
2018-03-27T06:26:16.536Z,2.00
2018-03-27T06:31:00.113Z,2.10
2018-03-27T06:35:43.620Z,2.20
2018-03-27T06:40:26.931Z,2.00
2018-03-27T06:45:12.085Z,2.10
2018-03-27T06:49:55.391Z,2.40
2018-03-27T06:54:38.744Z,2.40
2018-03-27T06:59:22.085Z,2.60
2018-03-27T07:04:05.481Z,2.70
2018-03-27T07:08:50.237Z,2.80
2018-03-27T07:13:33.677Z,2.80
2018-03-27T07:18:17.096Z,3.30
2018-03-27T07:23:00.684Z,3.20
2018-03-27T07:27:44.029Z,3.50
2018-03-27T07:32:27.534Z,3.60
2018-03-27T07:37:10.896Z,3.80
2018-03-27T07:41:55.113Z,4.20
2018-03-27T07:46:38.480Z,4.10
2018-03-27T07:51:23.013Z,4.10
2018-03-27T07:56:07.648Z,4.00
2018-03-27T08:00:51.102Z,4.00
2018-03-27T08:05:35.799Z,4.00
2018-03-27T08:10:19.259Z,3.80
2018-03-27T08:15:02.637Z,4.00
2018-03-27T08:19:46.845Z,4.30
2018-03-27T08:24:30.286Z,4.80
2018-03-27T08:29:13.795Z,4.50
2018-03-27T08:33:57.393Z,4.40
2018-03-27T08:38:40.737Z,4.60
2018-03-27T08:43:24.396Z,4.90
2018-03-27T08:48:07.714Z,5.00
2018-03-27T08:52:51.128Z,5.30
2018-03-27T08:57:35.265Z,5.30
2018-03-27T09:02:19.355Z,5.40
2018-03-27T09:07:02.691Z,5.40
2018-03-27T09:11:45.986Z,6.60
2018-03-27T09:16:30.070Z,6.70
2018-03-27T09:21:13.408Z,6.70
2018-03-27T09:25:57.783Z,5.70
2018-03-27T09:30:41.112Z,5.70
2018-03-27T09:35:24.451Z,5.80
2018-03-27T09:40:07.803Z,6.90
2018-03-27T09:44:51.951Z,7.70
2018-03-27T09:49:36.174Z,7.70
2018-03-27T09:54:19.527Z,7.40
2018-03-27T09:59:02.862Z,6.80
2018-03-27T10:03:46.217Z,7.50
2018-03-27T10:08:30.397Z,7.30
2018-03-27T10:13:14.466Z,8.00
2018-03-27T10:22:49.754Z,9.00
2018-03-27T10:27:33.117Z,9.30
2018-03-27T10:32:16.436Z,7.80
2018-03-27T10:36:59.804Z,7.40
2018-03-27T10:41:43.190Z,8.10
2018-03-27T10:46:27.339Z,9.70
2018-03-27T10:51:11.489Z,8.60
2018-03-27T10:55:55.639Z,8.00
2018-03-27T11:00:38.996Z,8.00
2018-03-27T11:05:22.368Z,7.80
2018-03-27T11:10:05.931Z,9.00
2018-03-27T11:14:49.321Z,9.80
2018-03-27T11:19:33.574Z,9.60
2018-03-27T11:24:16.915Z,9.60
2018-03-27T11:29:00.290Z,10.50
2018-03-27T11:33:43.645Z,11.00
2018-03-27T11:38:27.021Z,11.10
2018-03-27T11:43:10.373Z,11.90
2018-03-27T11:47:53.791Z,12.20
2018-03-27T11:52:37.851Z,10.60
2018-03-27T11:57:21.192Z,10.60
2018-03-27T12:02:04.581Z,11.00
2018-03-27T12:06:47.906Z,11.80
2018-03-27T12:11:32.031Z,10.10
2018-03-27T12:16:15.354Z,10.10
2018-03-27T12:20:58.744Z,9.80
2018-03-27T12:25:42.126Z,10.50
2018-03-27T12:30:25.511Z,10.80
2018-03-27T12:35:08.836Z,10.70
2018-03-27T12:39:52.143Z,10.10
2018-03-27T12:44:35.539Z,10.00
2018-03-27T12:49:18.901Z,10.40
2018-03-27T12:54:02.989Z,10.80
2018-03-27T12:58:46.364Z,10.80
2018-03-27T13:03:29.668Z,10.50
2018-03-27T13:08:13.255Z,9.80
2018-03-27T13:12:56.590Z,9.40
2018-03-27T13:17:39.974Z,9.70
2018-03-27T13:22:23.316Z,10.20
2018-03-27T13:27:06.737Z,11.10
2018-03-27T13:31:50.063Z,11.70
2018-03-27T13:36:33.404Z,12.20
2018-03-27T13:41:16.735Z,11.40
2018-03-27T13:46:00.317Z,11.20
2018-03-27T13:50:44.397Z,12.30
2018-03-27T13:55:27.764Z,12.30
2018-03-27T14:00:11.108Z,12.10
2018-03-27T14:04:54.690Z,10.50
2018-03-27T14:09:39.052Z,10.50
2018-03-27T14:14:22.302Z,10.40
2018-03-27T14:19:06.621Z,11.20
2018-03-27T14:23:50.056Z,11.20
2018-03-27T14:28:33.570Z,10.70
2018-03-27T14:33:17.694Z,11.20
2018-03-27T14:38:01.012Z,11.20
2018-03-27T14:42:45.171Z,11.30
2018-03-27T14:47:28.521Z,11.30
2018-03-27T14:52:11.855Z,11.50
2018-03-27T14:56:55.618Z,11.50
2018-03-27T15:01:38.923Z,11.40
2018-03-27T15:06:23.025Z,11.50
2018-03-27T15:11:06.556Z,11.50
2018-03-27T15:15:49.881Z,11.30
2018-03-27T15:20:33.282Z,11.00
2018-03-27T15:25:16.656Z,10.70
2018-03-27T15:29:59.978Z,10.40
2018-03-27T15:34:43.331Z,10.40
2018-03-27T15:39:26.684Z,10.50
2018-03-27T15:44:10.053Z,10.20
2018-03-27T15:48:53.371Z,9.90
2018-03-27T15:53:36.775Z,9.90
2018-03-27T15:58:20.839Z,10.00
2018-03-27T16:03:04.215Z,10.10
2018-03-27T16:07:47.609Z,9.90
2018-03-27T16:12:31.039Z,9.90
2018-03-27T16:17:15.424Z,9.40
2018-03-27T16:21:59.520Z,9.30
2018-03-27T16:26:43.884Z,9.20
2018-03-27T16:31:27.185Z,9.10
2018-03-27T16:36:10.527Z,8.80
2018-03-27T16:40:53.888Z,8.60
2018-03-27T16:45:37.204Z,8.40
2018-03-27T16:50:20.640Z,7.90
2018-03-27T16:55:03.962Z,7.40
2018-03-27T16:59:48.108Z,6.10
2018-03-27T17:04:31.478Z,6.00
2018-03-27T17:09:15.544Z,5.10
2018-03-27T17:13:58.887Z,5.10
2018-03-27T17:18:42.199Z,4.70
2018-03-27T17:23:25.548Z,4.20
2018-03-27T17:28:09.635Z,3.40
2018-03-27T17:32:53.002Z,3.40
2018-03-27T17:37:36.646Z,3.10
2018-03-27T17:42:20.072Z,2.80
2018-03-27T17:47:03.453Z,2.50
2018-03-27T17:51:47.568Z,1.70
2018-03-27T17:56:30.912Z,1.70
2018-03-27T18:01:14.275Z,1.50
2018-03-27T18:05:57.690Z,1.40
2018-03-27T18:10:41.142Z,1.30
2018-03-27T18:15:24.492Z,1.30
2018-03-27T18:20:07.832Z,1.20
2018-03-27T18:24:51.168Z,1.30
2018-03-27T18:29:34.513Z,1.40
2018-03-27T18:34:18.574Z,1.70
2018-03-27T18:39:02.185Z,1.90
2018-03-27T18:48:33.840Z,2.30
2018-03-27T19:00:06.482Z,2.90
2018-03-27T19:04:55.094Z,3.10
2018-03-27T19:09:44.533Z,3.30
2018-03-27T19:14:36.374Z,3.50
2018-03-27T19:19:25.199Z,3.60
2018-03-27T19:24:09.569Z,3.50
2018-03-27T19:28:57.129Z,3.50
2018-03-27T19:33:44.041Z,3.40
2018-03-27T19:38:32.219Z,3.30
2018-03-27T19:43:17.750Z,3.40
2018-03-27T19:48:03.805Z,3.30
2018-03-27T19:52:50.802Z,3.10
2018-03-27T19:57:34.298Z,3.00
2018-03-27T20:02:19.789Z,2.60
2018-03-27T20:07:05.203Z,2.60
2018-03-27T20:11:50.471Z,2.60
2018-03-27T20:16:34.443Z,2.60
2018-03-27T20:21:20.998Z,2.60
2018-03-27T20:26:09.023Z,2.60
2018-03-27T20:30:54.871Z,2.80
2018-03-27T20:35:40.792Z,3.00
2018-03-27T20:40:24.666Z,3.00
2018-03-27T20:45:08.062Z,3.20
2018-03-27T20:49:53.466Z,3.10
2018-03-27T20:54:37.304Z,3.10
2018-03-27T20:59:21.118Z,3.00
2018-03-27T21:04:08.005Z,3.00
2018-03-27T21:08:53.115Z,2.90
2018-03-27T21:13:37.217Z,2.90
2018-03-27T21:18:20.903Z,2.70
2018-03-27T21:23:04.621Z,2.60
2018-03-27T21:27:48.075Z,2.60
2018-03-27T21:32:32.202Z,2.40
2018-03-27T21:37:15.604Z,2.40
2018-03-27T21:41:58.946Z,2.20
2018-03-27T21:46:43.264Z,2.10
2018-03-27T21:51:26.750Z,2.10
2018-03-27T21:56:10.390Z,2.00
2018-03-27T22:00:53.876Z,1.90
2018-03-27T22:05:37.407Z,2.00
2018-03-27T22:10:21.581Z,2.10
2018-03-27T22:15:05.066Z,2.00
2018-03-27T22:19:49.243Z,1.80
2018-03-27T22:24:32.586Z,1.80
2018-03-27T22:29:15.903Z,1.80
2018-03-27T22:33:59.990Z,1.80
2018-03-27T22:38:43.311Z,1.80
2018-03-27T22:43:26.634Z,2.00
2018-03-27T22:48:10.754Z,2.00
2018-03-27T22:52:54.090Z,2.00
2018-03-27T22:57:38.240Z,2.10
2018-03-27T23:02:21.578Z,2.00
2018-03-27T23:07:04.929Z,2.20
2018-03-27T23:11:48.330Z,2.20
2018-03-27T23:16:32.435Z,2.20
2018-03-27T23:21:15.860Z,2.10
2018-03-27T23:25:59.174Z,2.30
2018-03-27T23:30:43.236Z,2.20
2018-03-27T23:35:26.592Z,2.10
2018-03-27T23:40:09.936Z,2.20
2018-03-27T23:44:53.271Z,1.90
2018-03-27T23:49:36.617Z,2.10
2018-03-27T23:54:19.906Z,2.10
2018-03-27T23:59:03.982Z,2.10
